Norfolk, Virginia
Traffic Map
Current Weather Conditions
Norfolk, Virginia
Clear
Clear
12°
Feels Like: 12°
Wind Chill: 12° Ceiling: Unl
Heat Index: 12° Visibility: 10mi
Dew Point: Wind: 6mph
Humidity: 66% Direction: 340° (NNW)
Pressure: 30.07in Gusts: 0mph
Raw Report DataKORF 200851Z 34005KT 10SM CLR 12/06 A3007 RMK AO2 SLP183 T01170056 53009
Traffic Incident Summary
Active as of:
Severity:
Category:
InformationThere was an issue retrieving the traffic information for this location. Please try a different location or try again shortly.
Advertisements
Track Severe Weather on mobile